sensor_id;sensor_type;location;lat;lon;timestamp;P1;durP1;ratioP1;P2;durP2;ratioP2
21235;SDS011;10775;42.678;26.324;2023-02-12T00:02:03;6.93;;;3.13;;
21235;SDS011;10775;42.678;26.324;2023-02-12T00:04:28;6.60;;;3.13;;
21235;SDS011;10775;42.678;26.324;2023-02-12T00:06:54;4.78;;;2.72;;
21235;SDS011;10775;42.678;26.324;2023-02-12T00:09:19;6.15;;;3.05;;
21235;SDS011;10775;42.678;26.324;2023-02-12T00:11:45;5.63;;;2.90;;
21235;SDS011;10775;42.678;26.324;2023-02-12T00:14:10;6.43;;;3.05;;
21235;SDS011;10775;42.678;26.324;2023-02-12T00:16:36;5.13;;;2.95;;
21235;SDS011;10775;42.678;26.324;2023-02-12T00:19:01;4.53;;;2.28;;
21235;SDS011;10775;42.678;26.324;2023-02-12T00:21:27;6.72;;;2.90;;
21235;SDS011;10775;42.678;26.324;2023-02-12T00:23:52;3.40;;;1.98;;
21235;SDS011;10775;42.678;26.324;2023-02-12T00:26:18;4.80;;;2.38;;
21235;SDS011;10775;42.678;26.324;2023-02-12T00:28:45;8.65;;;3.63;;
21235;SDS011;10775;42.678;26.324;2023-02-12T00:31:12;4.72;;;2.20;;
21235;SDS011;10775;42.678;26.324;2023-02-12T00:33:40;7.18;;;2.80;;
21235;SDS011;10775;42.678;26.324;2023-02-12T00:36:07;5.47;;;2.53;;
21235;SDS011;10775;42.678;26.324;2023-02-12T00:38:33;5.50;;;2.90;;
21235;SDS011;10775;42.678;26.324;2023-02-12T00:40:59;5.97;;;3.38;;
21235;SDS011;10775;42.678;26.324;2023-02-12T00:43:24;6.65;;;3.10;;
21235;SDS011;10775;42.678;26.324;2023-02-12T00:45:50;5.95;;;2.80;;
21235;SDS011;10775;42.678;26.324;2023-02-12T00:48:15;5.68;;;2.90;;
21235;SDS011;10775;42.678;26.324;2023-02-12T00:50:45;5.38;;;2.50;;
21235;SDS011;10775;42.678;26.324;2023-02-12T00:53:11;8.10;;;3.20;;
21235;SDS011;10775;42.678;26.324;2023-02-12T00:55:38;5.18;;;2.72;;
21235;SDS011;10775;42.678;26.324;2023-02-12T00:58:03;6.32;;;2.72;;
21235;SDS011;10775;42.678;26.324;2023-02-12T01:00:29;7.38;;;3.03;;
21235;SDS011;10775;42.678;26.324;2023-02-12T01:02:54;6.80;;;3.03;;
21235;SDS011;10775;42.678;26.324;2023-02-12T01:05:20;5.05;;;2.38;;
21235;SDS011;10775;42.678;26.324;2023-02-12T01:07:48;5.88;;;2.95;;
21235;SDS011;10775;42.678;26.324;2023-02-12T01:10:15;6.43;;;2.47;;
21235;SDS011;10775;42.678;26.324;2023-02-12T01:12:40;5.95;;;2.80;;
21235;SDS011;10775;42.678;26.324;2023-02-12T01:15:06;7.07;;;3.13;;
21235;SDS011;10775;42.678;26.324;2023-02-12T01:17:34;7.07;;;2.90;;
21235;SDS011;10775;42.678;26.324;2023-02-12T01:20:00;6.43;;;2.65;;
21235;SDS011;10775;42.678;26.324;2023-02-12T01:22:25;5.43;;;2.80;;
21235;SDS011;10775;42.678;26.324;2023-02-12T01:24:51;6.18;;;3.20;;
21235;SDS011;10775;42.678;26.324;2023-02-12T01:27:16;6.18;;;3.00;;
21235;SDS011;10775;42.678;26.324;2023-02-12T01:29:42;6.53;;;3.10;;
21235;SDS011;10775;42.678;26.324;2023-02-12T01:32:09;6.05;;;3.15;;
21235;SDS011;10775;42.678;26.324;2023-02-12T01:34:35;6.85;;;3.03;;
21235;SDS011;10775;42.678;26.324;2023-02-12T01:37:01;6.95;;;3.33;;
21235;SDS011;10775;42.678;26.324;2023-02-12T01:39:26;7.25;;;3.08;;
21235;SDS011;10775;42.678;26.324;2023-02-12T01:41:52;6.43;;;3.22;;
21235;SDS011;10775;42.678;26.324;2023-02-12T01:46:48;7.15;;;3.00;;
21235;SDS011;10775;42.678;26.324;2023-02-12T01:49:23;6.65;;;3.20;;
21235;SDS011;10775;42.678;26.324;2023-02-12T01:52:04;7.22;;;3.25;;
21235;SDS011;10775;42.678;26.324;2023-02-12T01:54:38;8.55;;;3.55;;
21235;SDS011;10775;42.678;26.324;2023-02-12T01:57:05;7.22;;;3.83;;
21235;SDS011;10775;42.678;26.324;2023-02-12T01:59:32;8.48;;;4.43;;
21235;SDS011;10775;42.678;26.324;2023-02-12T02:02:00;9.38;;;4.30;;
21235;SDS011;10775;42.678;26.324;2023-02-12T02:04:28;9.45;;;4.20;;
21235;SDS011;10775;42.678;26.324;2023-02-12T02:09:27;25.63;;;12.15;;
21235;SDS011;10775;42.678;26.324;2023-02-12T02:11:54;7.85;;;4.05;;
21235;SDS011;10775;42.678;26.324;2023-02-12T02:14:39;9.00;;;4.22;;
21235;SDS011;10775;42.678;26.324;2023-02-12T02:17:19;8.18;;;3.53;;
21235;SDS011;10775;42.678;26.324;2023-02-12T02:31:25;8.35;;;3.70;;
21235;SDS011;10775;42.678;26.324;2023-02-12T02:34:10;8.88;;;4.18;;
21235;SDS011;10775;42.678;26.324;2023-02-12T02:36:52;5.28;;;2.67;;
21235;SDS011;10775;42.678;26.324;2023-02-12T02:39:34;8.88;;;3.85;;
21235;SDS011;10775;42.678;26.324;2023-02-12T02:42:14;8.75;;;4.20;;
21235;SDS011;10775;42.678;26.324;2023-02-12T02:47:20;10.27;;;4.43;;
21235;SDS011;10775;42.678;26.324;2023-02-12T02:49:57;8.30;;;3.67;;
21235;SDS011;10775;42.678;26.324;2023-02-12T02:52:32;16.60;;;8.38;;
21235;SDS011;10775;42.678;26.324;2023-02-12T02:55:04;7.78;;;4.40;;
21235;SDS011;10775;42.678;26.324;2023-02-12T02:58:15;8.10;;;3.95;;
21235;SDS011;10775;42.678;26.324;2023-02-12T03:02:55;8.63;;;3.78;;
21235;SDS011;10775;42.678;26.324;2023-02-12T03:05:28;7.95;;;3.47;;
21235;SDS011;10775;42.678;26.324;2023-02-12T03:08:17;8.35;;;3.95;;
21235;SDS011;10775;42.678;26.324;2023-02-12T03:11:04;8.68;;;4.05;;
21235;SDS011;10775;42.678;26.324;2023-02-12T03:16:24;8.45;;;4.68;;
21235;SDS011;10775;42.678;26.324;2023-02-12T03:21:45;9.70;;;4.68;;
21235;SDS011;10775;42.678;26.324;2023-02-12T03:27:12;13.65;;;6.40;;
21235;SDS011;10775;42.678;26.324;2023-02-12T03:29:43;11.75;;;4.82;;
21235;SDS011;10775;42.678;26.324;2023-02-12T03:37:20;11.93;;;5.45;;
21235;SDS011;10775;42.678;26.324;2023-02-12T03:48:02;8.07;;;4.25;;
21235;SDS011;10775;42.678;26.324;2023-02-12T03:53:08;11.93;;;4.75;;
21235;SDS011;10775;42.678;26.324;2023-02-12T03:55:34;10.15;;;4.95;;
21235;SDS011;10775;42.678;26.324;2023-02-12T03:58:05;9.30;;;4.55;;
21235;SDS011;10775;42.678;26.324;2023-02-12T04:00:33;7.72;;;4.28;;
21235;SDS011;10775;42.678;26.324;2023-02-12T04:03:02;10.23;;;4.97;;
21235;SDS011;10775;42.678;26.324;2023-02-12T04:05:28;14.27;;;5.82;;
21235;SDS011;10775;42.678;26.324;2023-02-12T04:07:54;11.65;;;5.32;;
21235;SDS011;10775;42.678;26.324;2023-02-12T04:10:33;10.90;;;5.07;;
21235;SDS011;10775;42.678;26.324;2023-02-12T04:15:48;11.13;;;4.87;;
21235;SDS011;10775;42.678;26.324;2023-02-12T04:21:12;10.52;;;5.47;;
21235;SDS011;10775;42.678;26.324;2023-02-12T04:31:48;11.90;;;5.20;;
21235;SDS011;10775;42.678;26.324;2023-02-12T04:34:28;11.65;;;5.57;;
21235;SDS011;10775;42.678;26.324;2023-02-12T04:37:02;6.50;;;3.08;;
21235;SDS011;10775;42.678;26.324;2023-02-12T04:39:32;8.98;;;4.90;;
21235;SDS011;10775;42.678;26.324;2023-02-12T04:42:02;11.18;;;4.82;;
21235;SDS011;10775;42.678;26.324;2023-02-12T04:44:29;20.33;;;8.80;;
21235;SDS011;10775;42.678;26.324;2023-02-12T04:46:56;7.18;;;2.53;;
21235;SDS011;10775;42.678;26.324;2023-02-12T04:49:22;8.57;;;4.53;;
21235;SDS011;10775;42.678;26.324;2023-02-12T04:51:48;9.98;;;4.88;;
21235;SDS011;10775;42.678;26.324;2023-02-12T04:54:16;8.18;;;4.93;;
21235;SDS011;10775;42.678;26.324;2023-02-12T04:56:43;10.65;;;5.00;;
21235;SDS011;10775;42.678;26.324;2023-02-12T04:59:09;9.60;;;4.35;;
21235;SDS011;10775;42.678;26.324;2023-02-12T05:01:36;9.32;;;4.95;;
21235;SDS011;10775;42.678;26.324;2023-02-12T05:04:03;11.80;;;5.60;;
21235;SDS011;10775;42.678;26.324;2023-02-12T05:06:29;13.20;;;5.50;;
21235;SDS011;10775;42.678;26.324;2023-02-12T05:08:56;9.05;;;4.43;;
21235;SDS011;10775;42.678;26.324;2023-02-12T05:11:21;8.30;;;4.22;;
21235;SDS011;10775;42.678;26.324;2023-02-12T05:13:50;10.02;;;5.15;;
21235;SDS011;10775;42.678;26.324;2023-02-12T05:16:17;10.47;;;5.03;;
21235;SDS011;10775;42.678;26.324;2023-02-12T05:18:43;12.73;;;5.68;;
21235;SDS011;10775;42.678;26.324;2023-02-12T05:21:08;12.23;;;5.72;;
21235;SDS011;10775;42.678;26.324;2023-02-12T05:23:35;9.68;;;4.90;;
21235;SDS011;10775;42.678;26.324;2023-02-12T05:26:04;9.02;;;4.43;;
21235;SDS011;10775;42.678;26.324;2023-02-12T05:28:31;8.40;;;4.78;;
21235;SDS011;10775;42.678;26.324;2023-02-12T05:31:00;10.32;;;5.43;;
21235;SDS011;10775;42.678;26.324;2023-02-12T05:33:27;11.85;;;5.22;;
21235;SDS011;10775;42.678;26.324;2023-02-12T05:35:52;12.68;;;5.28;;
21235;SDS011;10775;42.678;26.324;2023-02-12T05:38:18;15.38;;;7.05;;
21235;SDS011;10775;42.678;26.324;2023-02-12T05:40:43;11.25;;;5.00;;
21235;SDS011;10775;42.678;26.324;2023-02-12T05:43:09;11.05;;;5.72;;
21235;SDS011;10775;42.678;26.324;2023-02-12T05:45:34;12.60;;;5.20;;
21235;SDS011;10775;42.678;26.324;2023-02-12T05:48:02;12.77;;;6.00;;
21235;SDS011;10775;42.678;26.324;2023-02-12T05:50:28;19.95;;;8.05;;
21235;SDS011;10775;42.678;26.324;2023-02-12T05:52:53;18.17;;;8.65;;
21235;SDS011;10775;42.678;26.324;2023-02-12T05:55:19;43.67;;;16.38;;
21235;SDS011;10775;42.678;26.324;2023-02-12T05:57:44;33.45;;;15.15;;
21235;SDS011;10775;42.678;26.324;2023-02-12T06:00:10;10.05;;;4.47;;
21235;SDS011;10775;42.678;26.324;2023-02-12T06:02:36;9.23;;;3.30;;
21235;SDS011;10775;42.678;26.324;2023-02-12T06:05:01;11.73;;;6.20;;
21235;SDS011;10775;42.678;26.324;2023-02-12T06:07:27;47.45;;;22.27;;
21235;SDS011;10775;42.678;26.324;2023-02-12T06:09:53;12.75;;;6.63;;
21235;SDS011;10775;42.678;26.324;2023-02-12T06:12:21;15.02;;;6.18;;
21235;SDS011;10775;42.678;26.324;2023-02-12T06:14:47;20.42;;;8.90;;
21235;SDS011;10775;42.678;26.324;2023-02-12T06:17:12;12.30;;;3.72;;
21235;SDS011;10775;42.678;26.324;2023-02-12T06:19:37;5.50;;;3.25;;
21235;SDS011;10775;42.678;26.324;2023-02-12T06:22:03;4.95;;;1.67;;
21235;SDS011;10775;42.678;26.324;2023-02-12T06:24:29;16.33;;;8.50;;
21235;SDS011;10775;42.678;26.324;2023-02-12T06:26:54;13.77;;;6.45;;
21235;SDS011;10775;42.678;26.324;2023-02-12T06:29:20;15.80;;;7.03;;
21235;SDS011;10775;42.678;26.324;2023-02-12T06:31:46;15.50;;;6.20;;
21235;SDS011;10775;42.678;26.324;2023-02-12T06:34:12;12.02;;;6.00;;
21235;SDS011;10775;42.678;26.324;2023-02-12T06:36:39;21.10;;;8.43;;
21235;SDS011;10775;42.678;26.324;2023-02-12T06:39:06;4.85;;;2.63;;
21235;SDS011;10775;42.678;26.324;2023-02-12T06:41:32;10.90;;;4.28;;
21235;SDS011;10775;42.678;26.324;2023-02-12T06:43:58;9.85;;;4.13;;
21235;SDS011;10775;42.678;26.324;2023-02-12T06:46:24;8.40;;;4.55;;
21235;SDS011;10775;42.678;26.324;2023-02-12T06:48:57;9.80;;;3.97;;
21235;SDS011;10775;42.678;26.324;2023-02-12T06:51:24;14.23;;;5.60;;
21235;SDS011;10775;42.678;26.324;2023-02-12T06:53:51;9.73;;;4.63;;
21235;SDS011;10775;42.678;26.324;2023-02-12T06:56:18;13.55;;;4.85;;
21235;SDS011;10775;42.678;26.324;2023-02-12T06:58:46;19.02;;;8.52;;
21235;SDS011;10775;42.678;26.324;2023-02-12T07:01:17;12.20;;;5.93;;
21235;SDS011;10775;42.678;26.324;2023-02-12T07:03:49;3.58;;;1.77;;
21235;SDS011;10775;42.678;26.324;2023-02-12T07:06:16;27.08;;;11.23;;
21235;SDS011;10775;42.678;26.324;2023-02-12T07:08:42;18.80;;;8.57;;
21235;SDS011;10775;42.678;26.324;2023-02-12T07:11:08;2.42;;;1.30;;
21235;SDS011;10775;42.678;26.324;2023-02-12T07:13:33;22.02;;;9.45;;
21235;SDS011;10775;42.678;26.324;2023-02-12T07:16:14;10.25;;;5.47;;
21235;SDS011;10775;42.678;26.324;2023-02-12T07:18:40;22.48;;;10.27;;
21235;SDS011;10775;42.678;26.324;2023-02-12T07:21:07;18.70;;;9.23;;
21235;SDS011;10775;42.678;26.324;2023-02-12T07:23:34;24.45;;;9.75;;
21235;SDS011;10775;42.678;26.324;2023-02-12T07:26:01;16.15;;;7.35;;
21235;SDS011;10775;42.678;26.324;2023-02-12T07:28:29;16.53;;;7.47;;
21235;SDS011;10775;42.678;26.324;2023-02-12T07:30:57;9.35;;;4.40;;
21235;SDS011;10775;42.678;26.324;2023-02-12T07:33:23;11.77;;;4.40;;
21235;SDS011;10775;42.678;26.324;2023-02-12T07:35:49;10.32;;;4.95;;
21235;SDS011;10775;42.678;26.324;2023-02-12T07:38:14;20.50;;;9.43;;
21235;SDS011;10775;42.678;26.324;2023-02-12T07:40:40;6.40;;;3.25;;
21235;SDS011;10775;42.678;26.324;2023-02-12T07:43:05;18.35;;;9.02;;
21235;SDS011;10775;42.678;26.324;2023-02-12T07:45:31;10.43;;;4.78;;
21235;SDS011;10775;42.678;26.324;2023-02-12T07:47:56;22.42;;;9.50;;
21235;SDS011;10775;42.678;26.324;2023-02-12T07:50:22;11.88;;;5.75;;
21235;SDS011;10775;42.678;26.324;2023-02-12T07:52:47;25.17;;;10.70;;
21235;SDS011;10775;42.678;26.324;2023-02-12T07:55:14;19.02;;;9.18;;
21235;SDS011;10775;42.678;26.324;2023-02-12T07:57:40;21.33;;;9.90;;
21235;SDS011;10775;42.678;26.324;2023-02-12T08:00:05;10.82;;;4.32;;
21235;SDS011;10775;42.678;26.324;2023-02-12T08:02:32;18.40;;;8.82;;
21235;SDS011;10775;42.678;26.324;2023-02-12T08:04:57;25.17;;;10.48;;
21235;SDS011;10775;42.678;26.324;2023-02-12T08:07:23;5.65;;;3.15;;
21235;SDS011;10775;42.678;26.324;2023-02-12T08:09:49;17.27;;;7.43;;
21235;SDS011;10775;42.678;26.324;2023-02-12T08:12:15;17.65;;;8.32;;
21235;SDS011;10775;42.678;26.324;2023-02-12T08:14:41;21.80;;;8.95;;
21235;SDS011;10775;42.678;26.324;2023-02-12T08:17:06;23.85;;;11.90;;
21235;SDS011;10775;42.678;26.324;2023-02-12T08:19:33;13.95;;;4.28;;
21235;SDS011;10775;42.678;26.324;2023-02-12T08:21:58;17.83;;;7.32;;
21235;SDS011;10775;42.678;26.324;2023-02-12T08:24:26;13.35;;;6.03;;
21235;SDS011;10775;42.678;26.324;2023-02-12T08:26:51;20.92;;;9.95;;
21235;SDS011;10775;42.678;26.324;2023-02-12T08:29:18;18.58;;;10.20;;
21235;SDS011;10775;42.678;26.324;2023-02-12T08:31:46;28.77;;;15.70;;
21235;SDS011;10775;42.678;26.324;2023-02-12T08:34:14;28.70;;;14.82;;
21235;SDS011;10775;42.678;26.324;2023-02-12T08:36:51;17.40;;;8.48;;
21235;SDS011;10775;42.678;26.324;2023-02-12T08:39:18;21.45;;;8.93;;
21235;SDS011;10775;42.678;26.324;2023-02-12T08:41:44;27.27;;;13.88;;
21235;SDS011;10775;42.678;26.324;2023-02-12T08:44:11;20.83;;;9.48;;
21235;SDS011;10775;42.678;26.324;2023-02-12T08:46:38;26.55;;;13.75;;
21235;SDS011;10775;42.678;26.324;2023-02-12T08:49:08;17.57;;;9.33;;
21235;SDS011;10775;42.678;26.324;2023-02-12T08:51:38;27.63;;;12.55;;
21235;SDS011;10775;42.678;26.324;2023-02-12T08:54:06;23.27;;;12.18;;
21235;SDS011;10775;42.678;26.324;2023-02-12T08:56:34;26.50;;;10.90;;
21235;SDS011;10775;42.678;26.324;2023-02-12T08:59:01;22.55;;;10.63;;
21235;SDS011;10775;42.678;26.324;2023-02-12T09:01:29;26.70;;;13.65;;
21235;SDS011;10775;42.678;26.324;2023-02-12T09:03:55;20.10;;;8.95;;
21235;SDS011;10775;42.678;26.324;2023-02-12T09:06:22;28.73;;;13.00;;
21235;SDS011;10775;42.678;26.324;2023-02-12T09:08:49;19.33;;;10.02;;
21235;SDS011;10775;42.678;26.324;2023-02-12T09:11:16;9.93;;;4.78;;
21235;SDS011;10775;42.678;26.324;2023-02-12T09:13:43;19.20;;;9.15;;
21235;SDS011;10775;42.678;26.324;2023-02-12T09:16:11;20.13;;;8.35;;
21235;SDS011;10775;42.678;26.324;2023-02-12T09:18:37;21.80;;;11.27;;
21235;SDS011;10775;42.678;26.324;2023-02-12T09:21:04;19.38;;;8.40;;
21235;SDS011;10775;42.678;26.324;2023-02-12T09:23:31;21.15;;;10.20;;
21235;SDS011;10775;42.678;26.324;2023-02-12T09:25:57;23.00;;;9.32;;
21235;SDS011;10775;42.678;26.324;2023-02-12T09:28:23;13.05;;;5.88;;
21235;SDS011;10775;42.678;26.324;2023-02-12T09:30:49;20.40;;;7.93;;
21235;SDS011;10775;42.678;26.324;2023-02-12T09:33:15;17.38;;;8.70;;
21235;SDS011;10775;42.678;26.324;2023-02-12T09:35:40;10.63;;;4.55;;
21235;SDS011;10775;42.678;26.324;2023-02-12T09:38:06;16.88;;;7.38;;
21235;SDS011;10775;42.678;26.324;2023-02-12T09:46:17;20.95;;;9.60;;
21235;SDS011;10775;42.678;26.324;2023-02-12T09:48:56;26.27;;;10.25;;
21235;SDS011;10775;42.678;26.324;2023-02-12T09:51:31;13.55;;;6.72;;
21235;SDS011;10775;42.678;26.324;2023-02-12T09:54:02;22.33;;;10.20;;
21235;SDS011;10775;42.678;26.324;2023-02-12T09:56:37;23.60;;;10.43;;
21235;SDS011;10775;42.678;26.324;2023-02-12T09:59:07;14.45;;;6.25;;
21235;SDS011;10775;42.678;26.324;2023-02-12T10:01:33;23.80;;;10.73;;
21235;SDS011;10775;42.678;26.324;2023-02-12T10:04:00;12.73;;;6.80;;
21235;SDS011;10775;42.678;26.324;2023-02-12T10:06:29;25.75;;;11.18;;
21235;SDS011;10775;42.678;26.324;2023-02-12T10:17:42;17.52;;;7.90;;
21235;SDS011;10775;42.678;26.324;2023-02-12T10:25:57;13.10;;;4.90;;
21235;SDS011;10775;42.678;26.324;2023-02-12T10:28:29;16.88;;;9.30;;
21235;SDS011;10775;42.678;26.324;2023-02-12T10:31:03;20.50;;;9.07;;
21235;SDS011;10775;42.678;26.324;2023-02-12T10:33:36;23.00;;;13.40;;
21235;SDS011;10775;42.678;26.324;2023-02-12T10:36:12;19.08;;;8.68;;
21235;SDS011;10775;42.678;26.324;2023-02-12T10:38:45;23.05;;;9.73;;
21235;SDS011;10775;42.678;26.324;2023-02-12T10:41:16;11.13;;;5.15;;
21235;SDS011;10775;42.678;26.324;2023-02-12T10:43:41;22.67;;;10.63;;
21235;SDS011;10775;42.678;26.324;2023-02-12T10:46:14;21.65;;;9.50;;
21235;SDS011;10775;42.678;26.324;2023-02-12T10:48:43;17.15;;;8.63;;
21235;SDS011;10775;42.678;26.324;2023-02-12T10:53:49;23.35;;;11.25;;
21235;SDS011;10775;42.678;26.324;2023-02-12T10:58:55;22.52;;;10.13;;
21235;SDS011;10775;42.678;26.324;2023-02-12T11:03:59;20.73;;;9.63;;
21235;SDS011;10775;42.678;26.324;2023-02-12T11:06:55;21.55;;;9.98;;
21235;SDS011;10775;42.678;26.324;2023-02-12T11:09:28;10.00;;;4.97;;
21235;SDS011;10775;42.678;26.324;2023-02-12T11:11:55;23.67;;;12.02;;
21235;SDS011;10775;42.678;26.324;2023-02-12T11:14:22;20.88;;;10.75;;
21235;SDS011;10775;42.678;26.324;2023-02-12T11:16:52;20.80;;;10.20;;
21235;SDS011;10775;42.678;26.324;2023-02-12T11:19:24;14.20;;;6.90;;
21235;SDS011;10775;42.678;26.324;2023-02-12T11:22:02;22.08;;;9.43;;
21235;SDS011;10775;42.678;26.324;2023-02-12T11:24:34;14.65;;;7.82;;
21235;SDS011;10775;42.678;26.324;2023-02-12T11:29:46;19.10;;;9.07;;
21235;SDS011;10775;42.678;26.324;2023-02-12T11:32:16;23.60;;;11.35;;
21235;SDS011;10775;42.678;26.324;2023-02-12T11:34:43;20.42;;;8.52;;
21235;SDS011;10775;42.678;26.324;2023-02-12T11:37:18;21.27;;;9.98;;
21235;SDS011;10775;42.678;26.324;2023-02-12T11:39:47;20.85;;;9.10;;
21235;SDS011;10775;42.678;26.324;2023-02-12T11:44:40;16.13;;;8.20;;
21235;SDS011;10775;42.678;26.324;2023-02-12T11:47:16;16.15;;;8.13;;
21235;SDS011;10775;42.678;26.324;2023-02-12T11:49:50;15.40;;;7.10;;
21235;SDS011;10775;42.678;26.324;2023-02-12T11:52:29;18.00;;;7.75;;
21235;SDS011;10775;42.678;26.324;2023-02-12T11:54:59;17.98;;;8.35;;
21235;SDS011;10775;42.678;26.324;2023-02-12T12:03:13;16.27;;;9.05;;
21235;SDS011;10775;42.678;26.324;2023-02-12T12:05:47;13.85;;;7.40;;
21235;SDS011;10775;42.678;26.324;2023-02-12T12:08:26;16.83;;;7.72;;
21235;SDS011;10775;42.678;26.324;2023-02-12T12:11:14;15.98;;;7.55;;
21235;SDS011;10775;42.678;26.324;2023-02-12T12:13:58;13.38;;;6.05;;
21235;SDS011;10775;42.678;26.324;2023-02-12T12:19:37;19.25;;;9.55;;
21235;SDS011;10775;42.678;26.324;2023-02-12T12:25:35;10.32;;;4.40;;
21235;SDS011;10775;42.678;26.324;2023-02-12T13:03:57;25.13;;;11.13;;
21235;SDS011;10775;42.678;26.324;2023-02-12T13:11:46;23.83;;;9.55;;
21235;SDS011;10775;42.678;26.324;2023-02-12T13:17:33;28.50;;;14.50;;
21235;SDS011;10775;42.678;26.324;2023-02-12T13:22:56;22.60;;;11.35;;
21235;SDS011;10775;42.678;26.324;2023-02-12T13:28:06;21.75;;;10.40;;
21235;SDS011;10775;42.678;26.324;2023-02-12T13:30:44;23.30;;;10.70;;
21235;SDS011;10775;42.678;26.324;2023-02-12T13:33:24;24.77;;;11.70;;
21235;SDS011;10775;42.678;26.324;2023-02-12T13:36:07;57.63;;;18.15;;
21235;SDS011;10775;42.678;26.324;2023-02-12T13:38:37;56.17;;;19.80;;
21235;SDS011;10775;42.678;26.324;2023-02-12T13:41:15;24.30;;;11.63;;
21235;SDS011;10775;42.678;26.324;2023-02-12T13:46:35;21.50;;;10.52;;
21235;SDS011;10775;42.678;26.324;2023-02-12T13:56:54;20.70;;;10.82;;
21235;SDS011;10775;42.678;26.324;2023-02-12T14:01:56;27.05;;;13.45;;
21235;SDS011;10775;42.678;26.324;2023-02-12T14:07:16;28.85;;;14.57;;
21235;SDS011;10775;42.678;26.324;2023-02-12T14:09:59;22.90;;;10.35;;
21235;SDS011;10775;42.678;26.324;2023-02-12T14:12:31;29.67;;;14.98;;
21235;SDS011;10775;42.678;26.324;2023-02-12T14:20:06;17.25;;;6.30;;
21235;SDS011;10775;42.678;26.324;2023-02-12T14:33:46;25.67;;;13.50;;
21235;SDS011;10775;42.678;26.324;2023-02-12T14:41:27;19.48;;;9.02;;
21235;SDS011;10775;42.678;26.324;2023-02-12T14:46:46;15.95;;;8.15;;
21235;SDS011;10775;42.678;26.324;2023-02-12T14:49:35;25.73;;;12.20;;
21235;SDS011;10775;42.678;26.324;2023-02-12T14:54:37;25.27;;;11.38;;
21235;SDS011;10775;42.678;26.324;2023-02-12T14:57:23;30.58;;;15.25;;
21235;SDS011;10775;42.678;26.324;2023-02-12T14:59:51;25.33;;;11.45;;
21235;SDS011;10775;42.678;26.324;2023-02-12T15:02:24;29.38;;;14.77;;
21235;SDS011;10775;42.678;26.324;2023-02-12T15:04:52;29.92;;;14.15;;
21235;SDS011;10775;42.678;26.324;2023-02-12T15:07:42;23.30;;;10.23;;
21235;SDS011;10775;42.678;26.324;2023-02-12T15:10:19;26.15;;;11.73;;
21235;SDS011;10775;42.678;26.324;2023-02-12T15:16:04;31.35;;;15.45;;
21235;SDS011;10775;42.678;26.324;2023-02-12T15:24:36;36.22;;;18.10;;
21235;SDS011;10775;42.678;26.324;2023-02-12T15:27:01;30.45;;;13.27;;
21235;SDS011;10775;42.678;26.324;2023-02-12T15:29:30;24.25;;;12.55;;
21235;SDS011;10775;42.678;26.324;2023-02-12T15:32:08;30.15;;;16.10;;
21235;SDS011;10775;42.678;26.324;2023-02-12T15:34:41;24.50;;;11.77;;
21235;SDS011;10775;42.678;26.324;2023-02-12T15:37:15;33.17;;;17.85;;
21235;SDS011;10775;42.678;26.324;2023-02-12T15:39:45;29.52;;;14.75;;
21235;SDS011;10775;42.678;26.324;2023-02-12T15:42:25;26.98;;;13.35;;
21235;SDS011;10775;42.678;26.324;2023-02-12T15:47:38;41.80;;;18.17;;
21235;SDS011;10775;42.678;26.324;2023-02-12T15:50:05;28.30;;;15.27;;
21235;SDS011;10775;42.678;26.324;2023-02-12T15:52:36;26.20;;;12.85;;
21235;SDS011;10775;42.678;26.324;2023-02-12T15:55:06;24.90;;;12.13;;
21235;SDS011;10775;42.678;26.324;2023-02-12T15:57:40;21.77;;;9.73;;
21235;SDS011;10775;42.678;26.324;2023-02-12T16:00:09;25.48;;;12.25;;
21235;SDS011;10775;42.678;26.324;2023-02-12T16:02:47;28.85;;;14.00;;
21235;SDS011;10775;42.678;26.324;2023-02-12T16:05:16;26.65;;;13.02;;
21235;SDS011;10775;42.678;26.324;2023-02-12T16:07:41;22.92;;;10.95;;
21235;SDS011;10775;42.678;26.324;2023-02-12T16:10:09;26.35;;;11.02;;
21235;SDS011;10775;42.678;26.324;2023-02-12T16:12:39;30.92;;;13.27;;
21235;SDS011;10775;42.678;26.324;2023-02-12T16:15:06;22.83;;;10.43;;
21235;SDS011;10775;42.678;26.324;2023-02-12T16:17:47;22.65;;;9.90;;
21235;SDS011;10775;42.678;26.324;2023-02-12T16:22:44;17.30;;;8.80;;
21235;SDS011;10775;42.678;26.324;2023-02-12T16:25:16;14.05;;;6.50;;
21235;SDS011;10775;42.678;26.324;2023-02-12T16:30:40;15.60;;;7.43;;
21235;SDS011;10775;42.678;26.324;2023-02-12T16:36:00;11.40;;;6.18;;
21235;SDS011;10775;42.678;26.324;2023-02-12T16:38:37;12.13;;;5.25;;
21235;SDS011;10775;42.678;26.324;2023-02-12T16:44:19;12.73;;;5.85;;
21235;SDS011;10775;42.678;26.324;2023-02-12T16:46:45;13.02;;;5.60;;
21235;SDS011;10775;42.678;26.324;2023-02-12T16:49:14;15.38;;;7.55;;
21235;SDS011;10775;42.678;26.324;2023-02-12T16:51:41;14.75;;;7.95;;
21235;SDS011;10775;42.678;26.324;2023-02-12T16:56:52;14.45;;;6.50;;
21235;SDS011;10775;42.678;26.324;2023-02-12T16:59:17;10.00;;;5.07;;
21235;SDS011;10775;42.678;26.324;2023-02-12T17:01:43;13.63;;;6.70;;
21235;SDS011;10775;42.678;26.324;2023-02-12T17:04:40;14.43;;;6.57;;
21235;SDS011;10775;42.678;26.324;2023-02-12T17:07:24;24.48;;;11.10;;
21235;SDS011;10775;42.678;26.324;2023-02-12T17:09:53;14.13;;;7.07;;
21235;SDS011;10775;42.678;26.324;2023-02-12T17:12:19;14.10;;;5.70;;
21235;SDS011;10775;42.678;26.324;2023-02-12T17:14:44;17.50;;;8.55;;
21235;SDS011;10775;42.678;26.324;2023-02-12T17:17:10;23.42;;;10.38;;
21235;SDS011;10775;42.678;26.324;2023-02-12T17:19:35;10.07;;;5.32;;
21235;SDS011;10775;42.678;26.324;2023-02-12T17:22:01;14.10;;;6.60;;
21235;SDS011;10775;42.678;26.324;2023-02-12T17:24:29;18.52;;;8.65;;
21235;SDS011;10775;42.678;26.324;2023-02-12T17:26:55;12.15;;;6.55;;
21235;SDS011;10775;42.678;26.324;2023-02-12T17:29:21;12.07;;;5.35;;
21235;SDS011;10775;42.678;26.324;2023-02-12T17:31:48;21.60;;;11.27;;
21235;SDS011;10775;42.678;26.324;2023-02-12T17:34:14;23.30;;;10.23;;
21235;SDS011;10775;42.678;26.324;2023-02-12T17:36:40;26.08;;;13.32;;
21235;SDS011;10775;42.678;26.324;2023-02-12T17:39:06;19.83;;;9.13;;
21235;SDS011;10775;42.678;26.324;2023-02-12T17:41:33;18.70;;;9.30;;
21235;SDS011;10775;42.678;26.324;2023-02-12T17:43:59;23.88;;;10.85;;
21235;SDS011;10775;42.678;26.324;2023-02-12T17:46:25;20.15;;;9.38;;
21235;SDS011;10775;42.678;26.324;2023-02-12T17:48:52;12.52;;;6.75;;
21235;SDS011;10775;42.678;26.324;2023-02-12T17:51:18;7.25;;;3.45;;
21235;SDS011;10775;42.678;26.324;2023-02-12T17:53:44;14.60;;;7.18;;
21235;SDS011;10775;42.678;26.324;2023-02-12T17:56:11;17.17;;;9.07;;
21235;SDS011;10775;42.678;26.324;2023-02-12T17:58:41;12.50;;;5.82;;
21235;SDS011;10775;42.678;26.324;2023-02-12T18:01:08;12.68;;;5.53;;
21235;SDS011;10775;42.678;26.324;2023-02-12T18:03:36;19.92;;;9.43;;
21235;SDS011;10775;42.678;26.324;2023-02-12T18:06:02;17.38;;;7.97;;
21235;SDS011;10775;42.678;26.324;2023-02-12T18:08:29;18.55;;;8.65;;
21235;SDS011;10775;42.678;26.324;2023-02-12T18:10:54;18.50;;;9.15;;
21235;SDS011;10775;42.678;26.324;2023-02-12T18:13:20;7.97;;;4.30;;
21235;SDS011;10775;42.678;26.324;2023-02-12T18:15:45;19.35;;;9.45;;
21235;SDS011;10775;42.678;26.324;2023-02-12T18:18:11;19.65;;;9.50;;